createdAt,value
2018-10-03T00:02:02.591Z,100578.23
2018-10-03T00:04:31.138Z,100582.98
2018-10-03T00:06:59.527Z,100585.54
2018-10-03T00:09:27.917Z,100575.17
2018-10-03T00:11:56.290Z,100584.24
2018-10-03T00:14:24.690Z,100574.74
2018-10-03T00:16:53.064Z,100583.38
2018-10-03T00:19:21.459Z,100581.69
2018-10-03T00:21:49.836Z,100583.89
2018-10-03T00:24:18.226Z,100580.47
2018-10-03T00:26:46.614Z,100574.89
2018-10-03T00:29:15.055Z,100585.73
2018-10-03T00:31:43.425Z,100584.43
2018-10-03T00:34:11.819Z,100588.72
2018-10-03T00:36:40.246Z,100580.98
2018-10-03T00:39:10.202Z,100583.14
2018-10-03T00:41:38.970Z,100577.05
2018-10-03T00:44:07.567Z,100581.38
2018-10-03T00:46:35.945Z,100576.16
2018-10-03T00:49:04.641Z,100588.67
2018-10-03T00:51:33.019Z,100576.94
2018-10-03T00:54:01.407Z,100585.54
2018-10-03T00:56:30.108Z,100578.63
2018-10-03T00:58:58.665Z,100581.22
2018-10-03T01:01:27.136Z,100585.07
2018-10-03T01:03:55.532Z,100584.64
2018-10-03T01:06:23.947Z,100593.27
2018-10-03T01:08:52.330Z,100585.46
2018-10-03T01:11:20.721Z,100572.94
2018-10-03T01:13:49.524Z,100578.52
2018-10-03T01:16:18.248Z,100561.25
2018-10-03T01:18:46.690Z,100572.47
2018-10-03T01:21:15.070Z,100577.66
2018-10-03T01:23:43.559Z,100577.19
2018-10-03T01:26:11.954Z,100581.06
2018-10-03T01:28:40.352Z,100575.89
2018-10-03T01:31:08.734Z,100577.61
2018-10-03T01:33:37.094Z,100578.47
2018-10-03T01:36:05.478Z,100574.16
2018-10-03T01:38:33.838Z,100581.93
2018-10-03T01:41:02.229Z,100581.50
2018-10-03T01:43:30.577Z,100583.23
2018-10-03T01:45:58.959Z,100591.03
2018-10-03T01:48:27.321Z,100588.48
2018-10-03T01:50:55.712Z,100585.06
2018-10-03T01:53:24.079Z,100593.27
2018-10-03T01:55:52.470Z,100593.78
2018-10-03T01:58:20.829Z,100598.57
2018-10-03T02:00:49.210Z,100613.29
2018-10-03T02:03:17.606Z,100615.05
2018-10-03T02:05:46.038Z,100608.22
2018-10-03T02:08:14.436Z,100628.56
2018-10-03T02:10:43.101Z,100627.77
2018-10-03T02:13:11.475Z,100632.56
2018-10-03T02:15:39.905Z,100622.66
2018-10-03T02:18:08.269Z,100617.05
2018-10-03T02:20:36.658Z,100617.05
2018-10-03T02:23:05.033Z,100616.58
2018-10-03T02:25:33.422Z,100623.06
2018-10-03T02:28:01.796Z,100621.33
2018-10-03T02:30:30.216Z,100617.02
2018-10-03T02:32:58.582Z,100616.14
2018-10-03T02:35:26.984Z,100614.85
2018-10-03T02:37:55.361Z,100628.23
2018-10-03T02:40:23.753Z,100623.92
2018-10-03T02:42:52.127Z,100632.55
2018-10-03T02:45:21.442Z,100622.59
2018-10-03T02:47:51.330Z,100631.27
2018-10-03T02:50:19.732Z,100632.99
2018-10-03T02:52:48.113Z,100635.62
2018-10-03T02:55:16.505Z,100633.02
2018-10-03T02:57:45.059Z,100632.99
2018-10-03T03:00:13.471Z,100634.25
2018-10-03T03:02:41.841Z,100631.19
2018-10-03T03:05:10.210Z,100638.49
2018-10-03T03:07:38.601Z,100631.97
2018-10-03T03:10:06.979Z,100631.08
2018-10-03T03:12:35.376Z,100638.80
2018-10-03T03:15:03.742Z,100625.38
2018-10-03T03:17:32.130Z,100618.43
2018-10-03T03:20:00.524Z,100625.30
2018-10-03T03:22:28.909Z,100630.05
2018-10-03T03:24:57.294Z,100635.66
2018-10-03T03:27:25.677Z,100645.59
2018-10-03T03:29:54.071Z,100647.31
2018-10-03T03:32:22.462Z,100648.62
2018-10-03T03:34:50.826Z,100652.94
2018-10-03T03:37:19.220Z,100655.13
2018-10-03T03:39:47.623Z,100656.39
2018-10-03T03:42:16.017Z,100656.39
2018-10-03T03:44:44.386Z,100654.63
2018-10-03T03:47:12.773Z,100652.46
2018-10-03T03:49:41.174Z,100660.66
2018-10-03T03:52:09.570Z,100659.76
2018-10-03T03:54:37.980Z,100658.42
2018-10-03T03:57:06.513Z,100666.16
2018-10-03T03:59:34.885Z,100662.70
2018-10-03T04:02:03.315Z,100661.75
2018-10-03T04:04:31.695Z,100669.05
2018-10-03T04:07:00.093Z,100671.20
2018-10-03T04:09:28.464Z,100673.70
2018-10-03T04:11:56.868Z,100676.29
2018-10-03T04:14:25.239Z,100682.69
2018-10-03T04:16:53.644Z,100683.06
2018-10-03T04:19:22.162Z,100683.02
2018-10-03T04:21:50.558Z,100684.70
2018-10-03T04:24:18.921Z,100692.00
2018-10-03T04:26:47.325Z,100691.95
2018-10-03T04:29:15.715Z,100691.90
2018-10-03T04:31:44.126Z,100703.07
2018-10-03T04:34:12.490Z,100696.98
2018-10-03T04:36:40.878Z,100694.39
2018-10-03T04:39:09.252Z,100706.52
2018-10-03T04:41:37.741Z,100706.91
2018-10-03T04:44:06.106Z,100713.81
2018-10-03T04:46:34.497Z,100722.05
2018-10-03T04:49:02.973Z,100717.73
2018-10-03T04:51:31.259Z,100709.55
2018-10-03T04:53:59.847Z,100722.53
2018-10-03T04:56:28.956Z,100722.97
2018-10-03T04:58:57.359Z,100726.42
2018-10-03T05:01:25.765Z,100728.14
2018-10-03T05:03:54.146Z,100726.00
2018-10-03T05:06:22.509Z,100723.88
2018-10-03T05:08:50.898Z,100725.66
2018-10-03T05:11:19.313Z,100727.43
2018-10-03T05:13:47.669Z,100734.86
2018-10-03T05:16:16.022Z,100735.33
2018-10-03T05:18:44.409Z,100746.60
2018-10-03T05:21:12.801Z,100758.27
2018-10-03T05:23:41.180Z,100768.63
2018-10-03T05:26:09.550Z,100765.16
2018-10-03T05:28:37.945Z,100759.56
2018-10-03T05:31:06.543Z,100761.71
2018-10-03T05:33:35.454Z,100760.84
2018-10-03T05:36:03.809Z,100755.63
2018-10-03T05:38:32.190Z,100768.14
2018-10-03T05:41:00.602Z,100775.91
2018-10-03T05:43:28.983Z,100757.40
2018-10-03T05:45:57.345Z,100775.58
2018-10-03T05:48:25.835Z,100778.20
2018-10-03T05:50:54.193Z,100776.53
2018-10-03T05:53:22.583Z,100783.01
2018-10-03T05:55:50.959Z,100791.68
2018-10-03T05:58:19.355Z,100789.53
2018-10-03T06:00:47.727Z,100799.52
2018-10-03T06:03:16.119Z,100801.72
2018-10-03T06:05:44.478Z,100799.13
2018-10-03T06:08:12.858Z,100820.76
2018-10-03T06:10:41.217Z,100818.17
2018-10-03T06:13:09.597Z,100824.69
2018-10-03T06:15:37.958Z,100833.75
2018-10-03T06:18:06.497Z,100844.55
2018-10-03T06:20:34.862Z,100849.39
2018-10-03T06:23:03.241Z,100855.45
2018-10-03T06:25:31.696Z,100855.49
2018-10-03T06:28:00.160Z,100870.22
2018-10-03T06:30:28.498Z,100878.48
2018-10-03T06:32:56.884Z,100885.87
2018-10-03T06:35:25.255Z,100876.37
2018-10-03T06:37:53.654Z,100883.33
2018-10-03T06:40:22.046Z,100891.54
2018-10-03T06:42:50.420Z,100901.56
2018-10-03T06:45:18.810Z,100907.23
2018-10-03T06:47:47.186Z,100907.27
2018-10-03T06:50:15.573Z,100924.60
2018-10-03T06:52:43.972Z,100923.36
2018-10-03T06:55:12.353Z,100931.19
2018-10-03T06:57:40.717Z,100931.66
2018-10-03T07:00:09.116Z,100935.70
2018-10-03T07:02:37.494Z,100943.65
2018-10-03T07:05:05.898Z,100950.18
2018-10-03T07:07:34.261Z,100951.53
2018-10-03T07:10:02.647Z,100955.04
2018-10-03T07:12:31.021Z,100955.47
2018-10-03T07:14:59.410Z,100970.64
2018-10-03T07:17:27.769Z,100965.89
2018-10-03T07:19:56.154Z,100969.39
2018-10-03T07:22:24.532Z,100978.95
2018-10-03T07:24:52.953Z,100980.33
2018-10-03T07:27:21.335Z,100991.58
2018-10-03T07:29:49.754Z,100999.45
2018-10-03T07:32:18.125Z,101009.48
2018-10-03T07:34:46.514Z,101006.52
2018-10-03T07:37:14.884Z,101009.68
2018-10-03T07:39:43.325Z,101032.64
2018-10-03T07:42:12.778Z,101041.00
2018-10-03T07:44:41.202Z,101041.48
2018-10-03T07:47:09.570Z,101039.41
2018-10-03T07:49:37.962Z,101048.98
2018-10-03T07:52:06.466Z,101041.33
2018-10-03T07:54:34.864Z,101061.31
2018-10-03T07:57:03.238Z,101074.39
2018-10-03T07:59:31.639Z,101067.59
2018-10-03T08:02:00.053Z,101069.93
2018-10-03T08:04:28.457Z,101080.45
2018-10-03T08:06:56.830Z,101084.05
2018-10-03T08:09:25.210Z,101082.52
2018-10-03T08:11:53.578Z,101086.54
2018-10-03T08:14:21.970Z,101090.13
2018-10-03T08:16:50.344Z,101100.64
2018-10-03T08:19:18.737Z,101100.23
2018-10-03T08:21:47.110Z,101111.94
2018-10-03T08:24:15.532Z,101111.03
2018-10-03T08:26:44.038Z,101117.97
2018-10-03T08:29:12.425Z,101120.17
2018-10-03T08:31:40.817Z,101134.11
2018-10-03T08:34:09.194Z,101123.31
2018-10-03T08:36:37.600Z,101143.33
2018-10-03T08:39:08.947Z,101148.17
2018-10-03T08:41:37.347Z,101143.13
2018-10-03T08:44:05.764Z,101141.50
2018-10-03T08:46:34.157Z,101141.72
2018-10-03T08:49:02.547Z,101150.14
2018-10-03T08:51:30.989Z,101148.94
2018-10-03T08:53:59.422Z,101149.91
2018-10-03T08:56:27.832Z,101160.78
2018-10-03T08:58:56.199Z,101157.75
2018-10-03T09:01:24.597Z,101165.92
2018-10-03T09:03:52.979Z,101165.02
2018-10-03T09:06:21.386Z,101187.89
2018-10-03T09:08:50.138Z,101190.03
2018-10-03T09:11:18.529Z,101200.75
2018-10-03T09:13:46.898Z,101201.51
2018-10-03T09:16:15.289Z,101207.86
2018-10-03T09:18:43.805Z,101218.05
2018-10-03T09:21:12.228Z,101218.75
2018-10-03T09:23:40.606Z,101230.72
2018-10-03T09:26:09.014Z,101228.42
2018-10-03T09:28:37.405Z,101235.31
2018-10-03T09:31:05.805Z,101244.75
2018-10-03T09:33:34.207Z,101251.72
2018-10-03T09:36:02.667Z,101249.56
2018-10-03T09:38:31.039Z,101257.48
2018-10-03T09:40:59.426Z,101259.32
2018-10-03T09:43:27.900Z,101266.47
2018-10-03T09:45:56.289Z,101265.38
2018-10-03T09:48:24.650Z,101270.75
2018-10-03T09:50:53.046Z,101279.62
2018-10-03T09:53:21.435Z,101272.80
2018-10-03T09:55:49.823Z,101294.22
2018-10-03T09:58:18.186Z,101283.02
2018-10-03T10:00:52.110Z,101310.81
2018-10-03T10:03:20.478Z,101300.09
2018-10-03T10:05:49.638Z,101323.59
2018-10-03T10:08:18.035Z,101317.64
2018-10-03T10:10:46.415Z,101322.52
2018-10-03T10:13:14.778Z,101324.44
2018-10-03T10:15:43.179Z,101332.00
2018-10-03T10:18:11.591Z,101323.89
2018-10-03T10:20:40.057Z,101325.72
2018-10-03T10:23:08.543Z,101334.54
2018-10-03T10:25:36.905Z,101331.63
2018-10-03T10:28:05.309Z,101342.18
2018-10-03T10:30:33.723Z,101344.78
2018-10-03T10:33:02.142Z,101346.16
2018-10-03T10:35:30.518Z,101366.63
2018-10-03T10:37:58.920Z,101357.51
2018-10-03T10:40:27.561Z,101361.36
2018-10-03T10:42:55.843Z,101368.18
2018-10-03T10:45:24.247Z,101378.50
2018-10-03T10:47:52.643Z,101378.94
2018-10-03T10:50:21.092Z,101379.74
2018-10-03T10:52:51.094Z,101389.33
2018-10-03T10:55:19.626Z,101387.66
2018-10-03T10:57:48.018Z,101391.23
2018-10-03T11:00:16.393Z,101405.64
2018-10-03T11:02:44.789Z,101408.38
2018-10-03T11:05:13.461Z,101399.31
2018-10-03T11:07:41.852Z,101411.11
2018-10-03T11:10:10.221Z,101422.47
2018-10-03T11:12:38.618Z,101412.56
2018-10-03T11:15:07.034Z,101422.22
2018-10-03T11:17:35.433Z,101427.09
2018-10-03T11:20:03.813Z,101424.14
2018-10-03T11:22:32.197Z,101439.81
2018-10-03T11:25:00.588Z,101435.93
2018-10-03T11:27:29.002Z,101443.84
2018-10-03T11:29:57.435Z,101445.26
2018-10-03T11:32:25.823Z,101442.75
2018-10-03T11:34:54.194Z,101455.97
2018-10-03T11:37:22.581Z,101455.62
2018-10-03T11:39:50.960Z,101466.99
2018-10-03T11:42:19.353Z,101464.87
2018-10-03T11:44:47.724Z,101480.53
2018-10-03T11:47:16.157Z,101487.06
2018-10-03T11:49:44.498Z,101484.88
2018-10-03T11:52:12.914Z,101497.00
2018-10-03T11:54:41.279Z,101488.76
2018-10-03T11:57:09.722Z,101493.91
2018-10-03T11:59:38.141Z,101506.95
2018-10-03T12:02:06.483Z,101513.51
2018-10-03T12:04:34.906Z,101507.50
2018-10-03T12:07:03.340Z,101521.07
2018-10-03T12:09:31.713Z,101518.06
2018-10-03T12:12:00.082Z,101517.67
2018-10-03T12:14:28.473Z,101525.11
2018-10-03T12:16:56.829Z,101538.60
2018-10-03T12:19:25.252Z,101532.89
2018-10-03T12:21:53.622Z,101542.80
2018-10-03T12:24:22.005Z,101542.23
2018-10-03T12:26:50.361Z,101543.34
2018-10-03T12:29:18.829Z,101559.69
2018-10-03T12:31:47.210Z,101565.59
2018-10-03T12:34:15.598Z,101574.59
2018-10-03T12:36:43.972Z,101569.67
2018-10-03T12:39:12.394Z,101574.74
2018-10-03T12:41:41.066Z,101574.23
2018-10-03T12:44:13.350Z,101578.11
2018-10-03T12:46:41.750Z,101575.42
2018-10-03T12:49:10.138Z,101579.73
2018-10-03T12:51:38.515Z,101593.13
2018-10-03T12:54:06.921Z,101592.58
2018-10-03T12:56:35.354Z,101597.36
2018-10-03T12:59:03.745Z,101590.05
2018-10-03T13:01:32.124Z,101594.47
2018-10-03T13:04:00.519Z,101595.06
2018-10-03T13:06:28.903Z,101606.36
2018-10-03T13:08:57.401Z,101608.61
2018-10-03T13:11:25.779Z,101625.17
2018-10-03T13:13:54.196Z,101633.03
2018-10-03T13:16:22.575Z,101628.33
2018-10-03T13:18:51.057Z,101633.14
2018-10-03T13:21:19.433Z,101624.89
2018-10-03T13:23:47.822Z,101633.94
2018-10-03T13:26:16.216Z,101643.98
2018-10-03T13:28:44.621Z,101650.54
2018-10-03T13:31:12.990Z,101667.20
2018-10-03T13:33:41.378Z,101639.49
2018-10-03T13:36:09.751Z,101649.97
2018-10-03T13:38:38.162Z,101658.70
2018-10-03T13:41:06.535Z,101662.14
2018-10-03T13:43:34.939Z,101668.63
2018-10-03T13:46:03.325Z,101671.16
2018-10-03T13:48:31.814Z,101676.30
2018-10-03T13:51:00.218Z,101683.14
2018-10-03T13:53:28.607Z,101681.33
2018-10-03T13:55:57.055Z,101685.16
2018-10-03T13:58:25.445Z,101682.42
2018-10-03T14:00:53.961Z,101691.03
2018-10-03T14:03:22.337Z,101693.98
2018-10-03T14:05:50.739Z,101700.86
2018-10-03T14:08:19.111Z,101710.28
2018-10-03T14:10:47.515Z,101709.72
2018-10-03T14:13:15.899Z,101718.31
2018-10-03T14:15:44.305Z,101721.30
2018-10-03T14:18:12.778Z,101734.68
2018-10-03T14:20:41.508Z,101724.25
2018-10-03T14:23:10.020Z,101728.98
2018-10-03T14:25:38.413Z,101731.98
2018-10-03T14:28:06.794Z,101734.67
2018-10-03T14:30:35.225Z,101730.38
2018-10-03T14:33:03.604Z,101734.81
2018-10-03T14:35:32.025Z,101725.31
2018-10-03T14:38:00.397Z,101733.66
2018-10-03T14:40:28.831Z,101733.84
2018-10-03T14:42:57.202Z,101731.33
2018-10-03T14:45:25.607Z,101727.89
2018-10-03T14:47:54.161Z,101734.45
2018-10-03T14:50:22.553Z,101728.84
2018-10-03T14:52:51.285Z,101724.11
2018-10-03T14:55:19.946Z,101726.28
2018-10-03T14:57:48.318Z,101729.38
2018-10-03T15:00:16.712Z,101739.36
2018-10-03T15:02:45.083Z,101749.28
2018-10-03T15:05:13.483Z,101750.49
2018-10-03T15:07:41.857Z,101751.70
2018-10-03T15:10:10.258Z,101749.87
2018-10-03T15:12:38.636Z,101746.70
2018-10-03T15:15:07.717Z,101746.20
2018-10-03T15:17:36.100Z,101743.50
2018-10-03T15:20:04.599Z,101742.59
2018-10-03T15:22:32.984Z,101753.41
2018-10-03T15:25:01.389Z,101759.83
2018-10-03T15:27:29.769Z,101758.91
2018-10-03T15:29:58.356Z,101759.23
2018-10-03T15:32:26.641Z,101763.02
2018-10-03T15:34:55.047Z,101778.98
2018-10-03T15:37:23.410Z,101782.34
2018-10-03T15:39:52.041Z,101780.08
2018-10-03T15:42:20.483Z,101781.75
2018-10-03T15:44:48.829Z,101788.70
2018-10-03T15:47:17.311Z,101780.39
2018-10-03T15:49:45.698Z,101781.70
2018-10-03T15:52:14.093Z,101789.94
2018-10-03T15:54:42.509Z,101795.59
2018-10-03T15:57:10.875Z,101796.94
2018-10-03T15:59:39.276Z,101800.91
2018-10-03T16:02:07.666Z,101808.78
2018-10-03T16:04:36.033Z,101811.48
2018-10-03T16:07:04.435Z,101811.98
2018-10-03T16:09:32.854Z,101820.28
2018-10-03T16:12:01.222Z,101817.67
2018-10-03T16:14:29.594Z,101811.55
2018-10-03T16:16:58.102Z,101814.53
2018-10-03T16:19:26.478Z,101821.42
2018-10-03T16:21:54.867Z,101818.71
2018-10-03T16:24:23.241Z,101822.08
2018-10-03T16:26:51.627Z,101829.73
2018-10-03T16:29:20.023Z,101830.41
2018-10-03T16:31:48.423Z,101838.05
2018-10-03T16:34:16.802Z,101829.14
2018-10-03T16:36:45.198Z,101836.73
2018-10-03T16:39:13.652Z,101839.12
2018-10-03T16:41:41.994Z,101831.08
2018-10-03T16:44:10.471Z,101842.11
2018-10-03T16:46:38.897Z,101842.29
2018-10-03T16:49:07.307Z,101840.31
2018-10-03T16:51:35.706Z,101846.59
2018-10-03T16:54:04.082Z,101852.84
2018-10-03T16:56:32.478Z,101859.19
2018-10-03T16:59:00.845Z,101856.30
2018-10-03T17:01:29.241Z,101865.23
2018-10-03T17:03:57.618Z,101861.57
2018-10-03T17:06:26.018Z,101871.38
2018-10-03T17:08:54.399Z,101876.87
2018-10-03T17:11:22.810Z,101888.42
2018-10-03T17:14:05.838Z,101888.34
2018-10-03T17:16:34.241Z,101892.13
2018-10-03T17:19:02.618Z,101890.38
2018-10-03T17:21:31.009Z,101900.68
2018-10-03T17:23:59.382Z,101902.71
2018-10-03T17:26:27.779Z,101903.87
2018-10-03T17:28:56.165Z,101910.33
2018-10-03T17:31:24.556Z,101906.72
2018-10-03T17:33:52.937Z,101905.30
2018-10-03T17:36:21.363Z,101913.94
2018-10-03T17:38:49.730Z,101920.88
2018-10-03T17:41:18.130Z,101917.41
2018-10-03T17:43:47.257Z,101921.37
2018-10-03T17:46:15.646Z,101931.78
2018-10-03T17:48:44.015Z,101938.34
2018-10-03T17:51:12.409Z,101942.66
2018-10-03T17:53:40.799Z,101943.95
2018-10-03T17:56:09.171Z,101940.84
2018-10-03T17:58:37.585Z,101945.92
2018-10-03T18:01:06.238Z,101950.15
2018-10-03T18:03:34.627Z,101946.16
2018-10-03T18:06:03.002Z,101950.33
2018-10-03T18:08:31.438Z,101953.23
2018-10-03T18:10:59.813Z,101956.58
2018-10-03T18:13:28.273Z,101959.44
2018-10-03T18:15:56.641Z,101961.00
2018-10-03T18:18:25.070Z,101966.07
2018-10-03T18:20:53.437Z,101967.63
2018-10-03T18:23:21.827Z,101970.98
2018-10-03T18:25:50.203Z,101967.77
2018-10-03T18:28:18.610Z,101973.25
2018-10-03T18:30:46.966Z,101970.56
2018-10-03T18:33:15.366Z,101970.84
2018-10-03T18:35:43.739Z,101971.59
2018-10-03T18:38:12.131Z,101972.37
2018-10-03T18:40:40.498Z,101977.05
2018-10-03T18:43:08.885Z,101980.45
2018-10-03T18:45:37.655Z,101982.13
2018-10-03T18:48:06.047Z,101978.17
2018-10-03T18:50:34.414Z,101985.02
2018-10-03T18:53:02.811Z,101985.72
2018-10-03T18:55:31.173Z,101983.52
2018-10-03T18:57:59.561Z,101987.27
2018-10-03T19:00:28.334Z,101988.02
2018-10-03T19:02:56.911Z,101991.41
2018-10-03T19:05:25.273Z,101988.30
2018-10-03T19:07:53.678Z,101991.17
2018-10-03T19:10:22.073Z,101998.50
2018-10-03T19:12:50.586Z,101998.50
2018-10-03T19:15:19.013Z,102004.98
2018-10-03T19:17:47.398Z,102003.13
2018-10-03T19:20:15.962Z,102006.98
2018-10-03T19:22:44.310Z,102008.56
2018-10-03T19:25:12.686Z,102016.66
2018-10-03T19:27:41.075Z,102016.48
2018-10-03T19:30:09.465Z,102029.80
2018-10-03T19:32:37.855Z,102029.65
2018-10-03T19:35:06.229Z,102034.66
2018-10-03T19:37:34.778Z,102035.80
2018-10-03T19:40:03.158Z,102034.41
2018-10-03T19:42:31.597Z,102033.83
2018-10-03T19:44:59.978Z,102036.77
2018-10-03T19:47:28.354Z,102039.71
2018-10-03T19:49:56.773Z,102037.05
2018-10-03T19:52:25.130Z,102040.48
2018-10-03T19:54:53.511Z,102045.59
2018-10-03T19:57:21.982Z,102046.84
2018-10-03T19:59:50.367Z,102047.19
2018-10-03T20:02:18.845Z,102051.50
2018-10-03T20:04:47.222Z,102060.91
2018-10-03T20:07:15.596Z,102064.37
2018-10-03T20:09:44.006Z,102068.16
2018-10-03T20:12:12.395Z,102065.91
2018-10-03T20:14:40.774Z,102069.34
2018-10-03T20:17:09.130Z,102068.38
2018-10-03T20:19:37.519Z,102071.78
2018-10-03T20:22:10.801Z,102068.27
2018-10-03T20:24:39.605Z,102067.78
2018-10-03T20:27:07.961Z,102069.41
2018-10-03T20:29:36.373Z,102065.95
2018-10-03T20:32:04.845Z,102072.77
2018-10-03T20:34:33.274Z,102073.14
2018-10-03T20:37:01.898Z,102078.59
2018-10-03T20:39:30.290Z,102079.35
2018-10-03T20:41:58.679Z,102085.71
2018-10-03T20:44:27.074Z,102093.36
2018-10-03T20:46:55.541Z,102082.47
2018-10-03T20:49:23.934Z,102088.87
2018-10-03T20:51:52.301Z,102095.69
2018-10-03T20:54:20.811Z,102095.22
2018-10-03T20:56:49.142Z,102095.64
2018-10-03T20:59:17.535Z,102094.69
2018-10-03T21:01:45.893Z,102095.98
2018-10-03T21:04:14.302Z,102093.27
2018-10-03T21:06:42.666Z,102098.37
2018-10-03T21:09:11.569Z,102097.91
2018-10-03T21:11:40.036Z,102092.20
2018-10-03T21:14:08.434Z,102093.41
2018-10-03T21:16:36.814Z,102089.41
2018-10-03T21:19:05.232Z,102100.56
2018-10-03T21:21:33.607Z,102090.50
2018-10-03T21:24:01.998Z,102087.80
2018-10-03T21:26:30.358Z,102089.89
2018-10-03T21:28:58.783Z,102087.17
2018-10-03T21:31:27.134Z,102088.39
2018-10-03T21:33:55.486Z,102090.52
2018-10-03T21:36:23.873Z,102087.05
2018-10-03T21:38:52.229Z,102086.09
2018-10-03T21:41:20.610Z,102092.56
2018-10-03T21:43:48.993Z,102090.39
2018-10-03T21:46:17.381Z,102087.73
2018-10-03T21:48:45.742Z,102091.56
2018-10-03T21:51:14.168Z,102091.95
2018-10-03T21:53:42.506Z,102092.78
2018-10-03T21:56:10.895Z,102096.66
2018-10-03T21:58:39.258Z,102102.64
2018-10-03T22:01:07.766Z,102099.59
2018-10-03T22:03:36.139Z,102104.69
2018-10-03T22:06:04.553Z,102101.17
2018-10-03T22:08:32.918Z,102099.80
2018-10-03T22:11:01.302Z,102097.55
2018-10-03T22:13:29.757Z,102101.84
2018-10-03T22:15:58.144Z,102098.30
2018-10-03T22:18:26.502Z,102103.89
2018-10-03T22:20:54.881Z,102105.94
2018-10-03T22:23:23.246Z,102113.23
2018-10-03T22:25:51.617Z,102117.13
2018-10-03T22:28:19.994Z,102109.69
2018-10-03T22:30:48.377Z,102112.62
2018-10-03T22:33:16.748Z,102107.86
2018-10-03T22:35:45.140Z,102106.48
2018-10-03T22:38:13.507Z,102103.35
2018-10-03T22:40:41.894Z,102112.82
2018-10-03T22:43:10.271Z,102116.20
2018-10-03T22:45:38.668Z,102118.33
2018-10-03T22:48:07.055Z,102120.38
2018-10-03T22:50:35.441Z,102122.42
2018-10-03T22:53:03.810Z,102126.16
2018-10-03T22:55:32.211Z,102123.83
2018-10-03T22:58:00.569Z,102124.11
2018-10-03T23:00:28.950Z,102122.28
2018-10-03T23:02:57.310Z,102134.25
2018-10-03T23:05:25.693Z,102140.16
2018-10-03T23:07:54.038Z,102138.41
2018-10-03T23:10:22.573Z,102132.27
2018-10-03T23:12:51.133Z,102131.73
2018-10-03T23:15:19.538Z,102131.23
2018-10-03T23:17:47.901Z,102131.64
2018-10-03T23:20:16.270Z,102142.41
2018-10-03T23:22:44.666Z,102141.03
2018-10-03T23:25:13.026Z,102138.77
2018-10-03T23:27:41.438Z,102148.20
2018-10-03T23:30:09.817Z,102145.98
2018-10-03T23:32:38.206Z,102152.82
2018-10-03T23:35:06.565Z,102160.53
2018-10-03T23:37:34.938Z,102155.60
2018-10-03T23:40:03.411Z,102159.89
2018-10-03T23:42:31.789Z,102158.05
2018-10-03T23:45:00.167Z,102163.96
2018-10-03T23:47:28.559Z,102166.96
2018-10-03T23:49:57.032Z,102166.00
2018-10-03T23:52:25.417Z,102164.23
2018-10-03T23:54:53.791Z,102170.28
2018-10-03T23:57:22.180Z,102167.20
2018-10-03T23:59:50.553Z,102170.20
